Cp402 — IHDB — position and weather

sailwx.info

Track history (hours):
 
Tides and Currents Weather Stations Pressure Air Temp Water Temp Dewpoint Dewpoint Depression Visibility Wind Speed Wind Dir Waves Ship Positions

Cp402

Last reported at 2018-May-07 19:17 UTC. Time now 2018-May-23 01:28 UTC.
Position N 36°36' E 014°54'.
Warning: this ship's position is 15 days out of date.

Length 30 m; draft 2.2 m.

MMSI: 247309700.

Date/timePositionNaut miles runAvg speedWind from/ knotsBaromVisibWave heightAir tempDewpointWater temp
2018-May-07 19:17N 36°36' E 014°54'311.3
2018-May-07 19:00N 36°36' E 014°50'612.3
2018-May-07 18:30N 36°36' E 014°42'1612.6
2018-May-07 17:14N 36°39' E 014°22'313.2
2018-May-07 17:00N 36°39' E 014°19'713.1
2018-May-07 16:30N 36°39' E 014°10'612.7
2018-May-07 16:00N 36°41' E 014°03'612.6
2018-May-07 15:30N 36°41' E 013°55'612.6
2018-May-07 15:00N 36°41' E 013°47'712.5
2018-May-07 14:29N 36°42' E 013°39'612.6
2018-May-07 14:00N 36°42' E 013°31'612.5
2018-May-07 13:30N 36°42' E 013°24'612.3
2018-May-07 13:01N 36°43' E 013°16'612.1
2018-May-07 12:30N 36°43' E 013°09'911.9
2018-May-07 11:46N 36°43' E 012°57'311.9
2018-May-07 11:30N 36°43' E 012°54'612.0
2018-May-07 11:00N 36°44' E 012°46'611.6
2018-May-07 10:30N 36°45' E 012°39'  
Track history (hours):
 
Tides and Currents Weather Stations Pressure Air Temp Water Temp Dewpoint Dewpoint Depression Visibility Wind Speed Wind Dir Waves Ship Positions

Cp402

Last reported at 2018-May-07 19:17 UTC. Time now 2018-May-23 01:28 UTC.
Position N 36°36' E 014°54'.
Warning: this ship's position is 15 days out of date.

Length 30 m; draft 2.2 m.

MMSI: 247309700.

Date/timePositionNaut miles runAvg speedWind from/ knotsBaromVisibWave heightAir tempDewpointWater temp
2018-May-07 19:17N 36°36' E 014°54'311.3
2018-May-07 19:00N 36°36' E 014°50'612.3
2018-May-07 18:30N 36°36' E 014°42'1612.6
2018-May-07 17:14N 36°39' E 014°22'313.2
2018-May-07 17:00N 36°39' E 014°19'713.1
2018-May-07 16:30N 36°39' E 014°10'612.7
2018-May-07 16:00N 36°41' E 014°03'612.6
2018-May-07 15:30N 36°41' E 013°55'612.6
2018-May-07 15:00N 36°41' E 013°47'712.5
2018-May-07 14:29N 36°42' E 013°39'612.6
2018-May-07 14:00N 36°42' E 013°31'612.5
2018-May-07 13:30N 36°42' E 013°24'612.3
2018-May-07 13:01N 36°43' E 013°16'612.1
2018-May-07 12:30N 36°43' E 013°09'911.9
2018-May-07 11:46N 36°43' E 012°57'311.9
2018-May-07 11:30N 36°43' E 012°54'612.0
2018-May-07 11:00N 36°44' E 012°46'611.6
2018-May-07 10:30N 36°45' E 012°39'  

Dump ship's entire track history